Time,TemperatureF,DewpointF,PressureIn,WindDirection,WindDirectionDegrees,WindSpeedMPH,WindSpeedGustMPH,Humidity,HourlyPrecipIn,Conditions,Clouds,dailyrainin,SoftwareType,DateUTC
2013-04-09 00:06:00,80.1,74.0,29.91,SW,222,13.0,39.0,82,0.00,,,0.00,weatherlink.com 1.10,2013-04-09 06:06:00,
2013-04-09 00:36:00,79.8,74.0,29.90,ESE,113,9.0,31.0,82,0.00,,,0.00,weatherlink.com 1.10,2013-04-09 06:36:00,
2013-04-09 01:51:00,80.0,73.0,29.88,SE,142,29.0,46.0,78,0.00,,,0.00,weatherlink.com 1.10,2013-04-09 07:51:00,
2013-04-09 02:06:00,80.0,72.0,29.88,SE,141,23.0,59.0,77,0.00,,,0.00,weatherlink.com 1.10,2013-04-09 08:06:00,
2013-04-09 02:21:00,80.1,73.0,29.87,SSE,151,29.0,50.0,78,0.00,,,0.00,weatherlink.com 1.10,2013-04-09 08:21:00,
2013-04-09 02:36:00,80.0,72.0,29.87,SSE,154,21.0,43.0,77,0.00,,,0.00,weatherlink.com 1.10,2013-04-09 08:36:00,
2013-04-09 02:51:00,80.0,73.0,29.86,SE,125,27.0,48.0,78,0.00,,,0.00,weatherlink.com 1.10,2013-04-09 08:51:00,
2013-04-09 03:06:00,79.9,72.0,29.86,SE,133,27.0,48.0,77,0.00,,,0.00,weatherlink.com 1.10,2013-04-09 09:06:00,
2013-04-09 03:21:00,79.8,72.0,29.86,SE,145,22.0,43.0,78,0.00,,,0.00,weatherlink.com 1.10,2013-04-09 09:21:00,
2013-04-09 03:36:00,79.6,72.0,29.86,SE,140,27.0,42.0,78,0.00,,,0.00,weatherlink.com 1.10,2013-04-09 09:36:00,
2013-04-09 03:51:00,79.4,73.0,29.86,ESE,117,22.0,41.0,80,0.00,,,0.00,weatherlink.com 1.10,2013-04-09 09:51:00,
2013-04-09 04:06:00,79.5,72.0,29.86,SE,142,19.0,40.0,78,0.00,,,0.00,weatherlink.com 1.10,2013-04-09 10:06:00,
2013-04-09 04:21:00,79.6,72.0,29.86,ESE,111,31.0,34.0,78,0.00,,,0.00,weatherlink.com 1.10,2013-04-09 10:21:00,
2013-04-09 05:06:00,79.7,71.0,29.88,SE,130,31.0,42.0,74,0.00,,,0.00,weatherlink.com 1.10,2013-04-09 11:06:00,
2013-04-09 05:21:00,80.0,71.0,29.88,ESE,118,28.0,44.0,73,0.00,,,0.00,weatherlink.com 1.10,2013-04-09 11:21:00,
2013-04-09 05:36:00,80.0,71.0,29.89,ESE,107,18.0,42.0,73,0.00,,,0.00,weatherlink.com 1.10,2013-04-09 11:36:00,
2013-04-09 05:51:00,80.1,70.0,29.89,SSE,148,22.0,45.0,72,0.00,,,0.00,weatherlink.com 1.10,2013-04-09 11:51:00,
2013-04-09 06:06:00,80.4,71.0,29.89,ESE,118,22.0,44.0,74,0.00,,,0.00,weatherlink.com 1.10,2013-04-09 12:06:00,
2013-04-09 06:21:00,80.8,71.0,29.90,SE,132,20.0,38.0,73,0.00,,,0.00,weatherlink.com 1.10,2013-04-09 12:21:00,
2013-04-09 06:36:00,81.1,72.0,29.90,East,101,18.0,35.0,74,0.00,,,0.00,weatherlink.com 1.10,2013-04-09 12:36:00,
2013-04-09 06:51:00,81.7,71.0,29.91,SE,126,16.0,40.0,71,0.00,,,0.00,weatherlink.com 1.10,2013-04-09 12:51:00,
2013-04-09 07:06:00,81.4,71.0,29.91,ESE,104,20.0,35.0,70,0.00,,,0.00,weatherlink.com 1.10,2013-04-09 13:06:00,
2013-04-09 07:21:00,81.9,71.0,29.92,SE,146,11.0,27.0,70,0.00,,,0.00,weatherlink.com 1.10,2013-04-09 13:21:00,
2013-04-09 07:36:00,81.8,72.0,29.92,ESE,107,23.0,33.0,71,0.00,,,0.00,weatherlink.com 1.10,2013-04-09 13:36:00,
2013-04-09 07:51:00,82.0,70.0,29.93,SE,128,13.0,35.0,68,0.00,,,0.00,weatherlink.com 1.10,2013-04-09 13:51:00,
2013-04-09 08:06:00,81.7,71.0,29.94,ESE,104,28.0,31.0,71,0.00,,,0.00,weatherlink.com 1.10,2013-04-09 14:06:00,
2013-04-09 08:21:00,82.3,73.0,29.93,SSE,151,14.0,24.0,73,0.00,,,0.00,weatherlink.com 1.10,2013-04-09 14:21:00,
2013-04-09 08:37:00,82.3,73.0,29.94,SE,137,13.0,35.0,73,0.00,,,0.00,weatherlink.com 1.10,2013-04-09 14:37:00,
2013-04-09 08:52:00,82.3,73.0,29.95,SE,144,10.0,30.0,74,0.00,,,0.00,weatherlink.com 1.10,2013-04-09 14:52:00,
2013-04-09 09:07:00,82.5,73.0,29.95,SE,144,9.0,21.0,72,0.00,,,0.00,weatherlink.com 1.10,2013-04-09 15:07:00,
2013-04-09 09:22:00,83.2,72.0,29.94,SE,146,5.0,22.0,69,0.00,,,0.00,weatherlink.com 1.10,2013-04-09 15:22:00,
2013-04-09 09:37:00,83.0,72.0,29.94,ESE,115,19.0,28.0,69,0.00,,,0.00,weatherlink.com 1.10,2013-04-09 15:37:00,
2013-04-09 09:52:00,83.1,72.0,29.94,SE,134,20.0,25.0,69,0.00,,,0.00,weatherlink.com 1.10,2013-04-09 15:52:00,
2013-04-09 10:08:00,83.5,72.0,29.94,SE,145,13.0,25.0,68,0.00,,,0.00,weatherlink.com 1.10,2013-04-09 16:08:00,
2013-04-09 10:22:00,83.5,72.0,29.94,SSE,149,17.0,29.0,68,0.00,,,0.00,weatherlink.com 1.10,2013-04-09 16:22:00,
2013-04-09 10:38:00,83.6,72.0,29.93,SE,127,21.0,29.0,67,0.00,,,0.00,weatherlink.com 1.10,2013-04-09 16:38:00,
2013-04-09 10:52:00,83.6,71.0,29.93,SSE,158,11.0,27.0,66,0.00,,,0.00,weatherlink.com 1.10,2013-04-09 16:52:00,
2013-04-09 11:07:00,83.6,72.0,29.93,South,169,5.0,28.0,67,0.00,,,0.00,weatherlink.com 1.10,2013-04-09 17:07:00,
2013-04-09 11:22:00,84.1,73.0,29.91,ESE,114,9.0,23.0,69,0.00,,,0.00,weatherlink.com 1.10,2013-04-09 17:22:00,
2013-04-09 11:37:00,84.4,73.0,29.91,SE,138,9.0,21.0,68,0.00,,,0.00,weatherlink.com 1.10,2013-04-09 17:37:00,
2013-04-09 11:52:00,84.3,74.0,29.91,SE,127,2.0,25.0,70,0.00,,,0.00,weatherlink.com 1.10,2013-04-09 17:52:00,
2013-04-09 12:07:00,85.2,73.0,29.90,SSE,156,6.0,21.0,67,0.00,,,0.00,weatherlink.com 1.10,2013-04-09 18:07:00,
2013-04-09 12:22:00,84.1,74.0,29.89,ESE,118,6.0,22.0,71,0.00,,,0.00,weatherlink.com 1.10,2013-04-09 18:22:00,
2013-04-09 12:37:00,84.3,73.0,29.88,East,98,6.0,27.0,69,0.00,,,0.00,weatherlink.com 1.10,2013-04-09 18:37:00,
2013-04-09 12:52:00,84.1,73.0,29.88,NE,35,11.0,22.0,70,0.00,,,0.00,weatherlink.com 1.10,2013-04-09 18:52:00,
2013-04-09 13:07:00,84.6,74.0,29.88,ESE,107,13.0,21.0,70,0.00,,,0.00,weatherlink.com 1.10,2013-04-09 19:07:00,
2013-04-09 13:22:00,84.5,74.0,29.87,ESE,120,9.0,26.0,71,0.00,,,0.00,weatherlink.com 1.10,2013-04-09 19:22:00,
2013-04-09 13:37:00,84.5,74.0,29.86,ENE,63,18.0,22.0,70,0.00,,,0.00,weatherlink.com 1.10,2013-04-09 19:37:00,
2013-04-09 14:07:00,83.8,75.0,29.84,NE,49,10.0,30.0,74,0.00,,,0.00,weatherlink.com 1.10,2013-04-09 20:07:00,
2013-04-09 14:22:00,84.1,75.0,29.83,ESE,118,7.0,26.0,74,0.00,,,0.00,weatherlink.com 1.10,2013-04-09 20:22:00,
2013-04-09 14:37:00,84.3,76.0,29.83,NE,34,3.0,17.0,75,0.00,,,0.00,weatherlink.com 1.10,2013-04-09 20:37:00,
2013-04-09 14:52:00,84.3,75.0,29.83,East,98,9.0,18.0,73,0.00,,,0.00,weatherlink.com 1.10,2013-04-09 20:52:00,
2013-04-09 15:07:00,84.3,75.0,29.82,ESE,104,18.0,22.0,74,0.00,,,0.00,weatherlink.com 1.10,2013-04-09 21:07:00,
2013-04-09 15:22:00,84.1,75.0,29.82,NE,39,12.0,14.0,73,0.00,,,0.00,weatherlink.com 1.10,2013-04-09 21:22:00,
2013-04-09 15:37:00,84.1,75.0,29.81,NNE,33,9.0,16.0,73,0.00,,,0.00,weatherlink.com 1.10,2013-04-09 21:37:00,
2013-04-09 15:52:00,84.2,74.0,29.82,SE,141,10.0,24.0,72,0.00,,,0.00,weatherlink.com 1.10,2013-04-09 21:52:00,
2013-04-09 16:07:00,83.9,74.0,29.81,ESE,121,3.0,19.0,72,0.00,,,0.00,weatherlink.com 1.10,2013-04-09 22:07:00,
2013-04-09 16:22:00,83.4,74.0,29.81,North,356,4.0,18.0,74,0.00,,,0.00,weatherlink.com 1.10,2013-04-09 22:22:00,
2013-04-09 16:37:00,82.8,75.0,29.81,ESE,109,6.0,18.0,76,0.00,,,0.00,weatherlink.com 1.10,2013-04-09 22:37:00,
2013-04-09 16:52:00,82.4,74.0,29.82,East,91,6.0,18.0,76,0.00,,,0.00,weatherlink.com 1.10,2013-04-09 22:52:00,
2013-04-09 17:08:00,82.2,74.0,29.82,ESE,108,4.0,19.0,77,0.00,,,0.00,weatherlink.com 1.10,2013-04-09 23:08:00,
2013-04-09 17:22:00,81.9,74.0,29.82,NE,48,12.0,19.0,77,0.00,,,0.00,weatherlink.com 1.10,2013-04-09 23:22:00,
2013-04-09 17:37:00,81.8,74.0,29.82,NE,49,9.0,22.0,77,0.00,,,0.00,weatherlink.com 1.10,2013-04-09 23:37:00,
2013-04-09 17:53:00,81.6,75.0,29.83,ESE,107,12.0,23.0,79,0.00,,,0.00,weatherlink.com 1.10,2013-04-09 23:53:00,
2013-04-09 18:08:00,81.4,74.0,29.82,SSE,155,4.0,25.0,79,0.00,,,0.00,weatherlink.com 1.10,2013-04-10 00:08:00,
2013-04-09 18:23:00,81.3,75.0,29.83,ENE,59,12.0,24.0,81,0.00,,,0.00,weatherlink.com 1.10,2013-04-10 00:23:00,
2013-04-09 18:38:00,81.0,75.0,29.83,ENE,72,9.0,19.0,82,0.00,,,0.00,weatherlink.com 1.10,2013-04-10 00:38:00,
2013-04-09 18:53:00,81.0,75.0,29.84,East,93,6.0,18.0,83,0.00,,,0.00,weatherlink.com 1.10,2013-04-10 00:53:00,
2013-04-09 19:08:00,80.8,75.0,29.85,ENE,71,11.0,20.0,83,0.00,,,0.00,weatherlink.com 1.10,2013-04-10 01:08:00,
2013-04-09 19:23:00,80.9,75.0,29.85,East,96,7.0,25.0,83,0.00,,,0.00,weatherlink.com 1.10,2013-04-10 01:23:00,
2013-04-09 19:38:00,80.9,75.0,29.85,ESE,114,6.0,25.0,83,0.00,,,0.00,weatherlink.com 1.10,2013-04-10 01:38:00,
2013-04-09 19:53:00,80.9,76.0,29.86,ENE,63,9.0,33.0,84,0.00,,,0.00,weatherlink.com 1.10,2013-04-10 01:53:00,
2013-04-09 20:08:00,80.9,76.0,29.88,East,87,19.0,35.0,84,0.00,,,0.00,weatherlink.com 1.10,2013-04-10 02:08:00,
2013-04-09 20:23:00,80.8,76.0,29.87,NE,54,14.0,20.0,85,0.00,,,0.00,weatherlink.com 1.10,2013-04-10 02:23:00,
2013-04-09 20:38:00,80.8,76.0,29.87,SE,127,7.0,27.0,85,0.00,,,0.00,weatherlink.com 1.10,2013-04-10 02:38:00,
2013-04-09 20:53:00,80.8,76.0,29.88,East,99,10.0,20.0,85,0.00,,,0.00,weatherlink.com 1.10,2013-04-10 02:53:00,
2013-04-09 21:08:00,80.9,76.0,29.89,East,89,13.0,30.0,85,0.00,,,0.00,weatherlink.com 1.10,2013-04-10 03:08:00,
2013-04-09 21:23:00,80.8,76.0,29.88,SSE,148,7.0,34.0,85,0.00,,,0.00,weatherlink.com 1.10,2013-04-10 03:23:00,
2013-04-09 21:38:00,80.8,76.0,29.88,SSE,152,8.0,28.0,85,0.00,,,0.00,weatherlink.com 1.10,2013-04-10 03:38:00,
2013-04-09 21:53:00,80.8,76.0,29.88,NE,40,9.0,36.0,85,0.00,,,0.00,weatherlink.com 1.10,2013-04-10 03:53:00,
2013-04-09 22:08:00,80.7,76.0,29.88,SE,132,7.0,30.0,85,0.00,,,0.00,weatherlink.com 1.10,2013-04-10 04:08:00,
2013-04-09 22:23:00,80.8,76.0,29.88,SE,135,34.0,37.0,85,0.00,,,0.00,weatherlink.com 1.10,2013-04-10 04:23:00,
2013-04-09 22:38:00,80.7,76.0,29.88,SSE,154,17.0,43.0,85,0.00,,,0.00,weatherlink.com 1.10,2013-04-10 04:38:00,
2013-04-09 22:53:00,80.6,76.0,29.88,SE,126,6.0,31.0,85,0.00,,,0.00,weatherlink.com 1.10,2013-04-10 04:53:00,
2013-04-09 23:08:00,80.5,75.0,29.87,SE,138,23.0,38.0,84,0.00,,,0.00,weatherlink.com 1.10,2013-04-10 05:08:00,
2013-04-09 23:23:00,80.6,75.0,29.88,SE,142,11.0,38.0,84,0.00,,,0.00,weatherlink.com 1.10,2013-04-10 05:23:00,
2013-04-09 23:38:00,80.5,75.0,29.87,ESE,104,34.0,40.0,84,0.00,,,0.00,weatherlink.com 1.10,2013-04-10 05:38:00,
2013-04-09 23:53:00,80.4,75.0,29.87,SE,132,20.0,50.0,83,0.00,,,0.00,weatherlink.com 1.10,2013-04-10 05:53:00,